Time;durP1;ratioP1;P1;durP2;ratioP2;P2;SDS_P1;SDS_P2;PMS_P1;PMS_P2;Temp;Humidity;BMP_temperature;BMP_pressure;BME280_temperature;BME280_humidity;BME280_pressure;Samples;Min_cycle;Max_cycle;Signal;HPM_P1;HPM_P2
2023/07/19 00:01:26;;;;;;;;;;;;;;;15.54;42.97;100739.20;105450;1288;61156;-86
2023/07/19 00:04:12;;;;;;;;;;;;;;;15.52;42.97;100735.95;105540;1291;64499;-86
2023/07/19 00:06:59;;;;;;;;;;;;;;;15.50;43.01;100735.68;105532;1288;73350;-87
2023/07/19 00:09:45;;;;;;;;;;;;;;;15.46;43.17;100732.88;105714;1286;67419;-86
2023/07/19 00:12:52;;;;;;;;;;;;;;;15.42;43.15;100730.94;105471;1291;74080;-87
2023/07/19 00:16:18;;;;;;;;;;;;;;;15.38;43.30;100728.98;105594;1289;61290;-87
2023/07/19 00:19:44;;;;;;;;;;;;;;;15.27;43.35;100724.16;105657;1288;62784;-87
2023/07/19 00:23:10;;;;;;;;;;;;;;;15.23;43.42;100718.70;105644;1286;72952;-87
2023/07/19 00:26:16;;;;;;;;;;;;;;;15.18;43.51;100718.02;105635;1285;68361;-86
2023/07/19 00:29:23;;;;;;;;;;;;;;;15.04;43.58;100717.45;105542;1286;72612;-87
2023/07/19 00:32:49;;;;;;;;;;;;;;;14.97;43.68;100712.66;105646;1287;61173;-87
2023/07/19 00:35:58;;;;;;;;;;;;;;;14.96;43.79;100708.70;105565;1290;59267;-87
2023/07/19 00:39:24;;;;;;;;;;;;;;;14.98;43.59;100708.66;105585;1287;73202;-87
2023/07/19 00:42:50;;;;;;;;;;;;;;;14.91;43.73;100702.26;105667;1287;69152;-87
2023/07/19 00:45:53;;;;;;;;;;;;;;;14.86;43.83;100701.04;105595;1288;73342;-86
2023/07/19 00:49:02;;;;;;;;;;;;;;;14.82;43.77;100706.54;105537;1291;61116;-87
2023/07/19 00:52:08;;;;;;;;;;;;;;;14.76;43.85;100695.27;105923;1288;61768;-87
2023/07/19 00:55:34;;;;;;;;;;;;;;;14.70;44.00;100686.27;105554;1286;73524;-87
2023/07/19 00:58:23;;;;;;;;;;;;;;;14.68;44.01;100686.69;105623;1286;67641;-87
2023/07/19 01:01:29;;;;;;;;;;;;;;;14.67;44.06;100684.64;105559;1288;71176;-87
2023/07/19 01:04:43;;;;;;;;;;;;;;;14.63;44.09;100678.88;105595;1286;61025;-87
2023/07/19 01:08:09;;;;;;;;;;;;;;;14.58;44.20;100680.25;105594;1286;61256;-87
2023/07/19 01:11:12;;;;;;;;;;;;;;;14.57;44.23;100675.93;105617;1286;74876;-87
2023/07/19 01:14:38;;;;;;;;;;;;;;;14.51;44.36;100670.95;105675;1288;67388;-88
2023/07/19 01:17:48;;;;;;;;;;;;;;;14.44;44.47;100666.64;105758;1286;71390;-88
2023/07/19 01:20:54;;;;;;;;;;;;;;;14.43;44.57;100668.43;105630;1287;61791;-87
2023/07/19 01:24:20;;;;;;;;;;;;;;;14.36;44.61;100661.48;105437;1286;61307;-87
2023/07/19 01:27:26;;;;;;;;;;;;;;;14.38;44.69;100659.02;105715;1286;73890;-88
2023/07/19 01:30:33;;;;;;;;;;;;;;;14.40;44.82;100656.17;105465;1286;67450;-87
2023/07/19 01:33:39;;;;;;;;;;;;;;;14.38;44.81;100655.54;105568;1286;71279;-87
2023/07/19 01:37:05;;;;;;;;;;;;;;;14.30;44.86;100657.16;105643;1288;61449;-86
2023/07/19 01:40:12;;;;;;;;;;;;;;;14.27;44.97;100650.16;105617;1288;61302;-87
2023/07/19 01:43:01;;;;;;;;;;;;;;;14.25;45.04;100646.74;106114;1286;73689;-86
2023/07/19 01:45:47;;;;;;;;;;;;;;;14.23;45.13;100647.30;105444;1286;69174;-86
2023/07/19 01:48:54;;;;;;;;;;;;;;;14.23;45.19;100647.14;105505;1286;71397;-87
2023/07/19 01:51:40;;;;;;;;;;;;;;;14.24;45.19;100651.81;105523;1288;61395;-87
2023/07/19 01:54:34;;;;;;;;;;;;;;;14.21;45.07;100648.60;105576;1287;59657;-87
2023/07/19 01:57:23;;;;;;;;;;;;;;;14.19;45.19;100643.80;105483;1290;73267;-86
2023/07/19 02:00:27;;;;;;;;;;;;;;;14.08;45.26;100639.98;105491;1287;68141;-87
2023/07/19 02:03:23;;;;;;;;;;;;;;;14.03;45.31;100639.98;105575;1287;71229;-86
2023/07/19 02:06:09;;;;;;;;;;;;;;;14.01;45.38;100642.99;105514;1286;61227;-86
2023/07/19 02:08:57;;;;;;;;;;;;;;;13.97;45.56;100642.23;105603;1286;61043;-86
2023/07/19 02:11:43;;;;;;;;;;;;;;;13.95;45.62;100645.08;105601;1288;74387;-86
2023/07/19 02:14:29;;;;;;;;;;;;;;;13.95;45.59;100642.30;105621;1286;69155;-87
2023/07/19 02:17:15;;;;;;;;;;;;;;;13.90;45.66;100637.92;105556;1288;72903;-86
2023/07/19 02:20:02;;;;;;;;;;;;;;;13.88;45.68;100639.71;105544;1286;61417;-86
2023/07/19 02:22:49;;;;;;;;;;;;;;;13.88;45.77;100634.02;105639;1288;61219;-86
2023/07/19 02:25:35;;;;;;;;;;;;;;;13.85;45.87;100632.71;105470;1287;74068;-86
2023/07/19 02:28:21;;;;;;;;;;;;;;;13.82;45.85;100632.10;105540;1286;67348;-86
2023/07/19 02:31:08;;;;;;;;;;;;;;;13.75;45.82;100629.37;105559;1286;71783;-86
2023/07/19 02:33:54;;;;;;;;;;;;;;;13.74;45.92;100625.92;105567;1286;59689;-86
2023/07/19 02:36:40;;;;;;;;;;;;;;;13.76;45.92;100623.63;105576;1286;61039;-86
2023/07/19 02:39:42;;;;;;;;;;;;;;;13.75;45.97;100623.64;105486;1286;75670;-86
2023/07/19 02:42:28;;;;;;;;;;;;;;;13.73;45.96;100626.98;105605;1286;69273;-86
2023/07/19 02:45:35;;;;;;;;;;;;;;;13.67;45.97;100630.12;105147;1287;71246;-87
2023/07/19 02:48:24;;;;;;;;;;;;;;;13.64;46.05;100628.63;105712;1286;61119;-86
2023/07/19 02:51:11;;;;;;;;;;;;;;;13.64;45.97;100623.60;105468;1289;62324;-86
2023/07/19 02:53:57;;;;;;;;;;;;;;;13.61;46.09;100616.43;105277;1290;73163;-86
2023/07/19 02:56:43;;;;;;;;;;;;;;;13.58;46.15;100616.84;105485;1287;68553;-86
2023/07/19 02:59:29;;;;;;;;;;;;;;;13.57;46.23;100617.40;105478;1286;73071;-85
2023/07/19 03:02:15;;;;;;;;;;;;;;;13.55;46.25;100615.89;98046;1286;10001949;-86
2023/07/19 03:05:03;;;;;;;;;;;;;;;13.55;46.32;100611.05;105293;1286;73491;-86
2023/07/19 03:07:51;;;;;;;;;;;;;;;13.51;46.36;100607.73;105208;1287;69989;-85
2023/07/19 03:10:37;;;;;;;;;;;;;;;13.50;46.43;100601.17;105273;1286;72545;-86
2023/07/19 03:13:24;;;;;;;;;;;;;;;13.45;46.58;100598.71;105373;1286;61148;-86
2023/07/19 03:16:10;;;;;;;;;;;;;;;13.44;46.63;100594.41;105501;1288;61212;-86
2023/07/19 03:19:00;;;;;;;;;;;;;;;13.45;46.73;100600.13;105563;1287;75237;-86
2023/07/19 03:21:46;;;;;;;;;;;;;;;13.43;46.72;100597.92;105074;1288;69444;-85
2023/07/19 03:24:32;;;;;;;;;;;;;;;13.39;46.88;100600.62;105495;1291;72560;-86
2023/07/19 03:27:18;;;;;;;;;;;;;;;13.38;46.92;100607.23;105519;1287;60687;-86
2023/07/19 03:30:06;;;;;;;;;;;;;;;13.37;46.91;100607.96;105315;1286;61606;-86
2023/07/19 03:32:52;;;;;;;;;;;;;;;13.36;47.02;100605.73;105221;1287;76564;-86
2023/07/19 03:35:38;;;;;;;;;;;;;;;13.32;46.99;100605.82;105442;1286;67302;-86
2023/07/19 03:38:25;;;;;;;;;;;;;;;13.38;47.07;100607.76;105448;1290;71445;-86
2023/07/19 03:41:11;;;;;;;;;;;;;;;13.42;47.14;100610.76;105433;1286;61200;-86
2023/07/19 03:43:57;;;;;;;;;;;;;;;13.41;47.11;100606.45;105161;1288;61122;-86
2023/07/19 03:46:43;;;;;;;;;;;;;;;13.44;47.15;100598.91;105283;1286;76689;-86
2023/07/19 03:49:38;;;;;;;;;;;;;;;13.50;47.27;100599.27;105390;1286;68288;-86
2023/07/19 03:52:24;;;;;;;;;;;;;;;13.55;47.34;100596.33;105198;1285;71348;-86
2023/07/19 03:55:10;;;;;;;;;;;;;;;13.59;47.35;100597.58;105322;1286;61577;-86
2023/07/19 03:57:57;;;;;;;;;;;;;;;13.65;47.40;100599.16;105393;1286;61247;-86
2023/07/19 04:00:43;;;;;;;;;;;;;;;13.68;47.46;100600.29;105318;1287;73340;-86
2023/07/19 04:03:49;;;;;;;;;;;;;;;13.74;47.54;100596.46;105507;1287;67144;-89
2023/07/19 04:07:15;;;;;;;;;;;;;;;13.83;47.61;100596.05;105259;1286;72895;-86
2023/07/19 04:10:21;;;;;;;;;;;;;;;13.85;47.68;100595.63;105457;1286;61162;-86
2023/07/19 04:13:29;;;;;;;;;;;;;;;13.93;47.76;100589.48;105939;1286;61197;-86
2023/07/19 04:16:15;;;;;;;;;;;;;;;14.04;47.81;100591.40;105310;1286;74529;-85
2023/07/19 04:19:01;;;;;;;;;;;;;;;14.17;47.84;100589.61;105380;1286;67350;-85
2023/07/19 04:21:48;;;;;;;;;;;;;;;14.29;48.02;100592.35;105434;1286;72379;-85
2023/07/19 04:24:34;;;;;;;;;;;;;;;14.43;47.97;100589.67;105517;1286;61255;-85
2023/07/19 04:27:21;;;;;;;;;;;;;;;14.51;48.00;100585.92;105378;1285;61178;-86
2023/07/19 04:30:08;;;;;;;;;;;;;;;14.61;48.02;100579.34;105592;1286;73581;-86
2023/07/19 04:32:59;;;;;;;;;;;;;;;14.68;48.11;100572.86;105391;1288;67848;-86
2023/07/19 04:35:47;;;;;;;;;;;;;;;14.75;48.16;100576.64;105252;1288;74057;-85
2023/07/19 04:38:33;;;;;;;;;;;;;;;14.84;48.25;100579.08;105568;1288;59402;-85
2023/07/19 04:41:19;;;;;;;;;;;;;;;14.90;48.34;100580.78;105382;1286;61145;-85
2023/07/19 04:44:05;;;;;;;;;;;;;;;14.99;48.36;100574.58;105303;1286;74503;-85
2023/07/19 04:46:51;;;;;;;;;;;;;;;15.11;48.47;100573.08;105459;1286;67582;-85
2023/07/19 04:49:38;;;;;;;;;;;;;;;15.25;48.43;100573.48;105368;1286;72090;-86
2023/07/19 04:52:24;;;;;;;;;;;;;;;15.37;48.51;100571.28;105642;1286;61221;-85
2023/07/19 04:55:11;;;;;;;;;;;;;;;15.49;48.52;100568.77;105626;1286;63529;-85
2023/07/19 04:57:58;;;;;;;;;;;;;;;15.66;48.59;100569.71;105617;1287;73964;-85
2023/07/19 05:00:44;;;;;;;;;;;;;;;15.82;48.53;100568.56;105245;1291;67199;-85
2023/07/19 05:03:31;;;;;;;;;;;;;;;15.95;48.69;100565.97;105579;1289;77246;-86
2023/07/19 05:06:17;;;;;;;;;;;;;;;16.02;48.75;100565.73;105644;1286;62405;-85
2023/07/19 05:09:03;;;;;;;;;;;;;;;16.13;48.82;100564.39;105482;1286;64499;-86
2023/07/19 05:11:49;;;;;;;;;;;;;;;16.28;48.87;100560.28;105403;1285;73448;-85
2023/07/19 05:14:35;;;;;;;;;;;;;;;16.53;48.87;100556.82;105364;1291;69093;-86
2023/07/19 05:17:30;;;;;;;;;;;;;;;16.96;49.08;100557.77;105446;1286;72737;-87
2023/07/19 05:20:16;;;;;;;;;;;;;;;17.62;48.98;100560.23;105371;1287;61393;-87
2023/07/19 05:23:24;;;;;;;;;;;;;;;18.12;48.62;100558.02;105317;1288;61438;-87
2023/07/19 05:26:31;;;;;;;;;;;;;;;18.62;48.57;100560.11;105679;1287;72449;-87
2023/07/19 05:29:37;;;;;;;;;;;;;;;19.44;48.32;100560.20;105615;1287;69962;-87
2023/07/19 05:32:51;;;;;;;;;;;;;;;20.45;48.00;100550.86;105460;1286;73053;-86
2023/07/19 05:36:17;;;;;;;;;;;;;;;21.32;47.57;100551.41;105451;1286;61247;-88
2023/07/19 05:39:43;;;;;;;;;;;;;;;21.72;47.14;100548.88;105596;1286;62892;-88
2023/07/19 05:43:09;;;;;;;;;;;;;;;22.21;46.80;100553.50;106191;1290;73380;-87
2023/07/19 05:46:35;;;;;;;;;;;;;;;22.59;46.66;100552.36;105523;1286;68093;-87
2023/07/19 05:49:41;;;;;;;;;;;;;;;22.88;46.58;100551.59;105449;1288;72369;-88
2023/07/19 05:52:51;;;;;;;;;;;;;;;23.12;46.25;100553.98;105403;1289;60495;-89
2023/07/19 05:56:01;;;;;;;;;;;;;;;23.42;46.13;100562.61;105371;1286;59791;-88
2023/07/19 05:59:26;;;;;;;;;;;;;;;23.76;46.00;100558.93;105257;1286;74952;-88
2023/07/19 06:02:35;;;;;;;;;;;;;;;24.38;45.84;100557.21;105253;1286;67665;-88
2023/07/19 06:06:00;;;;;;;;;;;;;;;24.68;45.38;100557.23;105383;1286;71457;-88
2023/07/19 06:09:08;;;;;;;;;;;;;;;25.00;45.34;100554.45;105090;1286;61363;-88
2023/07/19 06:12:30;;;;;;;;;;;;;;;25.53;45.23;100546.92;105492;1288;61163;-88
2023/07/19 06:16:12;;;;;;;;;;;;;;;26.18;44.65;100550.96;105312;1288;73409;-87
2023/07/19 06:19:19;;;;;;;;;;;;;;;26.49;44.15;100549.99;105307;1292;68420;-88
2023/07/19 06:22:04;;;;;;;;;;;;;;;26.54;43.89;100547.27;105355;1288;71915;-86
2023/07/19 06:24:48;;;;;;;;;;;;;;;26.76;43.66;100549.33;105389;1291;59584;-86
2023/07/19 06:27:33;;;;;;;;;;;;;;;26.63;43.55;100548.98;105245;1293;61186;-86
2023/07/19 06:30:17;;;;;;;;;;;;;;;26.40;43.49;100550.98;105053;1288;73229;-86
2023/07/19 06:33:02;;;;;;;;;;;;;;;26.09;43.33;100557.94;105417;1288;67557;-86
2023/07/19 06:35:51;;;;;;;;;;;;;;;25.78;43.22;100555.50;105228;1288;71099;-86
2023/07/19 06:38:37;;;;;;;;;;;;;;;25.50;43.12;100554.02;105293;1291;59148;-86
2023/07/19 06:41:23;;;;;;;;;;;;;;;25.42;43.10;100554.70;105227;1288;59214;-86
2023/07/19 06:44:09;;;;;;;;;;;;;;;25.45;43.01;100551.10;105313;1288;73689;-87
2023/07/19 06:46:55;;;;;;;;;;;;;;;25.63;42.89;100540.24;105504;1288;69344;-86
2023/07/19 06:49:41;;;;;;;;;;;;;;;25.78;42.72;100537.64;105448;1286;71257;-86
2023/07/19 06:52:28;;;;;;;;;;;;;;;25.92;42.47;100538.48;105437;1286;61283;-86
2023/07/19 06:55:14;;;;;;;;;;;;;;;25.85;42.20;100535.86;105552;1286;61518;-86
2023/07/19 06:58:00;;;;;;;;;;;;;;;25.74;42.18;100535.69;105435;1285;74463;-86
2023/07/19 07:00:46;;;;;;;;;;;;;;;25.64;42.13;100537.19;105352;1286;67375;-86
2023/07/19 07:03:34;;;;;;;;;;;;;;;25.56;42.21;100535.57;105403;1288;71386;-86
2023/07/19 07:06:20;;;;;;;;;;;;;;;25.55;42.02;100531.92;105164;1286;342019;-86
2023/07/19 07:09:07;;;;;;;;;;;;;;;25.83;41.84;100529.82;105506;1286;61255;-86
2023/07/19 07:11:53;;;;;;;;;;;;;;;26.21;41.45;100526.66;105475;1285;72999;-87
2023/07/19 07:14:39;;;;;;;;;;;;;;;26.65;41.30;100523.67;105612;1288;67415;-86
2023/07/19 07:17:25;;;;;;;;;;;;;;;27.32;41.08;100522.83;105543;1288;72274;-87
2023/07/19 07:20:10;;;;;;;;;;;;;;;28.17;40.70;100516.64;105524;1286;59620;-87
2023/07/19 07:22:55;;;;;;;;;;;;;;;28.54;40.47;100520.30;105670;1286;61163;-86
2023/07/19 07:25:40;;;;;;;;;;;;;;;28.85;40.26;100514.06;105566;1285;73341;-87
2023/07/19 07:28:24;;;;;;;;;;;;;;;29.15;40.20;100510.98;105503;1285;68696;-86
2023/07/19 07:31:09;;;;;;;;;;;;;;;29.29;39.99;100509.77;105582;1288;73953;-87
2023/07/19 07:33:54;;;;;;;;;;;;;;;29.40;39.67;100506.45;105436;1291;61231;-86
2023/07/19 07:36:38;;;;;;;;;;;;;;;29.51;39.68;100500.04;105494;1288;61483;-87
2023/07/19 07:39:24;;;;;;;;;;;;;;;29.67;39.58;100503.98;105611;1286;76024;-86
2023/07/19 07:42:09;;;;;;;;;;;;;;;29.90;39.08;100505.95;105456;1287;67356;-87
2023/07/19 07:44:53;;;;;;;;;;;;;;;30.10;38.89;100495.98;105607;1288;71148;-87
2023/07/19 07:47:39;;;;;;;;;;;;;;;30.31;38.45;100486.76;105588;1291;61235;-87
2023/07/19 07:50:26;;;;;;;;;;;;;;;30.76;38.57;100497.25;105629;1289;59185;-86
2023/07/19 07:53:21;;;;;;;;;;;;;;;32.06;37.88;100493.48;105606;1285;74394;-87
2023/07/19 07:56:07;;;;;;;;;;;;;;;33.37;37.45;100493.23;105561;1289;67192;-87
2023/07/19 07:59:13;;;;;;;;;;;;;;;34.74;36.91;100490.86;105493;1286;74061;-87
2023/07/19 08:02:19;;;;;;;;;;;;;;;35.87;36.50;100489.52;105670;1288;61153;-88
2023/07/19 08:05:06;;;;;;;;;;;;;;;37.53;35.74;100484.71;105609;1286;61259;-87
2023/07/19 08:07:52;;;;;;;;;;;;;;;39.04;35.33;100485.35;106030;1285;74614;-88
2023/07/19 08:10:39;;;;;;;;;;;;;;;40.21;34.89;100484.63;105639;1287;70027;-88
2023/07/19 08:13:25;;;;;;;;;;;;;;;41.28;34.66;100480.00;105708;1286;72556;-87
2023/07/19 08:16:13;;;;;;;;;;;;;;;42.59;33.75;100476.81;105633;1289;61090;-88
2023/07/19 08:19:01;;;;;;;;;;;;;;;42.75;33.65;100479.27;105413;1287;59376;-89
2023/07/19 08:21:54;;;;;;;;;;;;;;;42.17;33.13;100479.37;105498;1288;75498;-89
2023/07/19 08:24:40;;;;;;;;;;;;;;;41.27;33.00;100477.06;105496;1288;67783;-89
2023/07/19 08:27:28;;;;;;;;;;;;;;;40.24;32.59;100470.45;105383;1286;73216;-88
2023/07/19 08:30:34;;;;;;;;;;;;;;;39.36;32.20;100469.32;105321;1286;61320;-88
2023/07/19 08:33:41;;;;;;;;;;;;;;;38.60;31.71;100465.70;105706;1288;60485;-89
2023/07/19 08:37:07;;;;;;;;;;;;;;;37.48;31.24;100453.85;105522;1288;73453;-91
2023/07/19 08:40:33;;;;;;;;;;;;;;;39.28;30.90;100455.06;105559;1286;71292;-90
2023/07/19 08:43:27;;;;;;;;;;;;;;;41.65;30.30;100454.60;105733;1288;73147;-88
2023/07/19 08:46:37;;;;;;;;;;;;;;;43.46;29.71;100453.84;105727;1287;59647;-92
2023/07/19 08:52:16;;;;;;;;;;;;;;;44.64;28.37;100442.04;105740;1285;74303;-90
2023/07/19 08:55:33;;;;;;;;;;;;;;;42.74;28.41;100437.08;105826;1288;67990;-94
2023/07/19 08:58:59;;;;;;;;;;;;;;;41.77;28.23;100431.98;105213;1291;71787;-91
2023/07/19 09:02:05;;;;;;;;;;;;;;;41.48;27.81;100429.71;105292;1291;59523;-91
2023/07/19 09:05:32;;;;;;;;;;;;;;;39.34;27.42;100430.67;105233;1292;63838;-88
2023/07/19 09:08:59;;;;;;;;;;;;;;;37.61;27.32;100424.67;105307;1291;73598;-89
2023/07/19 09:12:07;;;;;;;;;;;;;;;35.97;27.11;100425.14;104890;1297;68446;-87
2023/07/19 09:15:13;;;;;;;;;;;;;;;34.58;26.94;100424.94;104780;1297;72625;-86
2023/07/19 09:18:01;;;;;;;;;;;;;;;33.54;26.69;100414.27;104729;1297;61472;-85
2023/07/19 09:20:47;;;;;;;;;;;;;;;32.66;26.46;100403.57;104748;1297;61514;-85
2023/07/19 09:23:38;;;;;;;;;;;;;;;31.94;26.40;100399.27;104663;1297;73020;-85
2023/07/19 09:26:24;;;;;;;;;;;;;;;31.50;26.38;100398.31;104800;1297;67169;-85
2023/07/19 09:29:11;;;;;;;;;;;;;;;31.14;26.33;100402.30;104762;1297;74022;-85
2023/07/19 09:32:02;;;;;;;;;;;;;;;30.65;26.50;100403.34;104781;1297;62749;-85
2023/07/19 09:34:52;;;;;;;;;;;;;;;30.24;26.47;100397.05;104491;1291;59539;-85
2023/07/19 09:37:38;;;;;;;;;;;;;;;29.93;26.17;100400.73;104859;1291;74166;-87
2023/07/19 09:40:25;;;;;;;;;;;;;;;29.62;26.37;100393.58;104878;1291;68417;-88
2023/07/19 09:43:14;;;;;;;;;;;;;;;29.26;26.45;100391.80;104975;1292;71655;-87
2023/07/19 09:46:00;;;;;;;;;;;;;;;29.00;26.48;100389.66;104852;1291;61179;-87
2023/07/19 09:48:46;;;;;;;;;;;;;;;28.87;26.65;100388.71;105285;1286;61447;-87
2023/07/19 09:51:34;;;;;;;;;;;;;;;28.87;26.58;100385.16;105363;1288;74398;-87
2023/07/19 09:54:21;;;;;;;;;;;;;;;28.69;26.46;100383.42;105084;1291;68645;-87
2023/07/19 09:57:07;;;;;;;;;;;;;;;28.54;26.70;100382.88;105466;1286;71364;-88
2023/07/19 09:59:53;;;;;;;;;;;;;;;28.46;26.72;100380.84;105423;1286;59994;-88
2023/07/19 10:02:40;;;;;;;;;;;;;;;28.35;26.78;100372.38;105318;1286;61743;-88
2023/07/19 10:05:30;;;;;;;;;;;;;;;28.32;26.80;100378.02;105302;1288;73321;-87
2023/07/19 10:08:17;;;;;;;;;;;;;;;28.32;26.85;100377.18;105397;1286;70371;-86
2023/07/19 10:11:03;;;;;;;;;;;;;;;28.26;26.84;100380.52;105360;1287;71216;-86
2023/07/19 10:13:53;;;;;;;;;;;;;;;28.14;26.82;100371.51;105420;1286;61273;-86
2023/07/19 10:16:47;;;;;;;;;;;;;;;28.01;26.92;100365.38;105417;1288;61116;-86
2023/07/19 10:19:35;;;;;;;;;;;;;;;27.98;27.00;100368.29;105414;1286;73187;-86
2023/07/19 10:22:21;;;;;;;;;;;;;;;27.98;27.00;100372.13;105438;1288;67994;-86
2023/07/19 10:25:07;;;;;;;;;;;;;;;28.04;26.93;100369.70;105341;1285;71269;-86
2023/07/19 10:27:55;;;;;;;;;;;;;;;28.14;26.95;100366.77;105328;1286;61252;-86
2023/07/19 10:30:44;;;;;;;;;;;;;;;28.20;26.87;100369.95;105442;1286;61330;-86
2023/07/19 10:33:31;;;;;;;;;;;;;;;28.15;26.82;100368.48;105447;1288;74587;-86
2023/07/19 10:36:17;;;;;;;;;;;;;;;28.02;26.87;100362.58;105264;1286;67599;-86
2023/07/19 10:39:04;;;;;;;;;;;;;;;27.96;26.96;100363.45;105439;1288;71272;-86
2023/07/19 10:41:52;;;;;;;;;;;;;;;27.96;27.02;100357.27;105360;1285;61149;-86
2023/07/19 10:44:36;;;;;;;;;;;;;;;27.97;27.05;100346.58;105441;1285;59364;-87
2023/07/19 10:47:23;;;;;;;;;;;;;;;28.03;26.98;100348.73;105421;1288;74457;-86
2023/07/19 10:50:09;;;;;;;;;;;;;;;28.08;27.13;100345.86;105422;1287;69947;-85
2023/07/19 10:52:55;;;;;;;;;;;;;;;28.23;27.28;100343.20;105331;1285;71316;-86
2023/07/19 10:55:45;;;;;;;;;;;;;;;28.36;27.31;100342.16;105446;1286;61228;-86
2023/07/19 10:58:31;;;;;;;;;;;;;;;28.45;27.29;100345.79;105349;1285;61193;-86
2023/07/19 11:01:17;;;;;;;;;;;;;;;28.46;27.27;100341.44;105448;1286;74604;-85
2023/07/19 11:04:04;;;;;;;;;;;;;;;28.48;27.19;100341.77;105318;1288;67149;-85
2023/07/19 11:06:54;;;;;;;;;;;;;;;28.48;27.17;100334.48;105443;1286;71188;-86
2023/07/19 11:09:49;;;;;;;;;;;;;;;28.50;27.25;100336.27;105341;1285;61163;-86
2023/07/19 11:12:36;;;;;;;;;;;;;;;28.40;27.29;100339.23;105550;1285;59181;-85
2023/07/19 11:15:26;;;;;;;;;;;;;;;28.41;27.41;100329.36;105450;1286;74325;-86
2023/07/19 11:18:13;;;;;;;;;;;;;;;28.33;27.30;100328.47;105464;1285;67742;-85
2023/07/19 11:21:01;;;;;;;;;;;;;;;28.23;27.40;100328.33;105566;1288;72097;-86
2023/07/19 11:23:48;;;;;;;;;;;;;;;28.10;27.36;100326.95;105445;1287;59819;-86
2023/07/19 11:26:50;;;;;;;;;;;;;;;27.96;27.49;100323.10;105322;1286;61078;-85
2023/07/19 11:29:36;;;;;;;;;;;;;;;27.95;27.61;100321.20;105447;1285;73456;-85
2023/07/19 11:32:23;;;;;;;;;;;;;;;27.94;27.66;100323.09;105391;1286;68468;-85
2023/07/19 11:35:09;;;;;;;;;;;;;;;27.90;27.69;100326.14;105348;1286;72712;-85
2023/07/19 11:37:54;;;;;;;;;;;;;;;27.75;27.68;100326.70;105529;1290;61108;-85
2023/07/19 11:40:42;;;;;;;;;;;;;;;27.61;27.80;100324.26;105507;1289;59442;-85
2023/07/19 11:43:26;;;;;;;;;;;;;;;27.47;27.85;100322.91;105531;1287;74883;-85
2023/07/19 11:46:13;;;;;;;;;;;;;;;27.35;27.91;100323.09;105420;1288;67671;-85
2023/07/19 11:48:57;;;;;;;;;;;;;;;27.25;28.03;100321.16;105406;1285;71271;-85
2023/07/19 11:51:41;;;;;;;;;;;;;;;27.27;28.23;100319.73;105496;1287;59156;-85
2023/07/19 11:54:26;;;;;;;;;;;;;;;27.35;28.31;100317.58;105355;1285;61528;-86
2023/07/19 11:57:11;;;;;;;;;;;;;;;27.43;28.32;100317.79;105338;1285;74474;-87
2023/07/19 11:59:55;;;;;;;;;;;;;;;27.50;28.40;100310.73;105391;1287;67204;-85
2023/07/19 12:02:39;;;;;;;;;;;;;;;27.57;28.29;100308.63;105314;1285;72486;-85
2023/07/19 12:05:24;;;;;;;;;;;;;;;27.65;28.41;100302.65;105463;1288;61241;-85
2023/07/19 12:08:08;;;;;;;;;;;;;;;27.75;28.32;100297.66;105474;1287;59322;-85
2023/07/19 12:10:52;;;;;;;;;;;;;;;27.76;28.33;100297.40;105367;1287;74892;-85
2023/07/19 12:13:37;;;;;;;;;;;;;;;27.76;28.43;100290.80;105460;1285;68257;-84
2023/07/19 12:16:21;;;;;;;;;;;;;;;27.79;28.40;100285.70;105409;1288;71333;-85
2023/07/19 12:19:06;;;;;;;;;;;;;;;27.73;28.41;100290.92;105377;1287;59263;-85
2023/07/19 12:21:53;;;;;;;;;;;;;;;27.62;28.48;100287.33;105384;1287;61393;-85
2023/07/19 12:24:39;;;;;;;;;;;;;;;27.60;28.62;100283.97;105452;1288;73993;-85
2023/07/19 12:27:25;;;;;;;;;;;;;;;27.59;28.46;100282.98;105357;1286;67625;-85
2023/07/19 12:30:11;;;;;;;;;;;;;;;27.56;28.62;100282.36;105419;1287;72725;-84
2023/07/19 12:32:58;;;;;;;;;;;;;;;27.56;28.57;100283.75;105358;1288;61282;-86
2023/07/19 12:35:46;;;;;;;;;;;;;;;27.49;28.54;100283.56;105414;1287;61144;-86
2023/07/19 12:38:33;;;;;;;;;;;;;;;27.42;28.51;100278.56;105367;1286;74484;-86
2023/07/19 12:41:20;;;;;;;;;;;;;;;27.33;28.61;100273.98;105498;1286;69952;-86
2023/07/19 12:44:07;;;;;;;;;;;;;;;27.33;28.62;100271.36;105484;1287;71292;-86
2023/07/19 12:46:53;;;;;;;;;;;;;;;27.32;28.53;100264.59;105325;1286;61122;-85
2023/07/19 12:49:39;;;;;;;;;;;;;;;27.28;28.56;100263.69;105382;1286;61276;-85
2023/07/19 12:52:25;;;;;;;;;;;;;;;27.25;28.60;100267.66;105517;1285;75375;-85
2023/07/19 12:55:11;;;;;;;;;;;;;;;27.26;28.64;100266.35;105439;1285;67444;-85
2023/07/19 12:57:57;;;;;;;;;;;;;;;27.31;28.69;100264.86;105384;1287;72959;-85
2023/07/19 13:00:43;;;;;;;;;;;;;;;27.37;28.63;100265.03;105424;1286;61035;-84
2023/07/19 13:03:29;;;;;;;;;;;;;;;27.42;28.81;100264.77;105344;1288;61106;-84
2023/07/19 13:06:16;;;;;;;;;;;;;;;27.49;28.83;100262.12;105355;1286;75925;-84
2023/07/19 13:09:06;;;;;;;;;;;;;;;27.59;28.78;100257.14;105393;1288;67411;-85
2023/07/19 13:11:53;;;;;;;;;;;;;;;27.63;28.75;100251.95;105360;1288;72363;-84
2023/07/19 13:14:39;;;;;;;;;;;;;;;27.59;28.69;100253.77;105452;1285;61250;-84
2023/07/19 13:17:25;;;;;;;;;;;;;;;27.52;28.72;100257.45;105459;1286;61345;-84
2023/07/19 13:20:11;;;;;;;;;;;;;;;27.40;28.74;100252.39;105519;1285;74565;-84
2023/07/19 13:22:57;;;;;;;;;;;;;;;27.30;28.84;100250.05;105539;1286;67346;-84
2023/07/19 13:25:43;;;;;;;;;;;;;;;27.24;28.87;100236.98;105357;1286;165719;-84
2023/07/19 13:28:30;;;;;;;;;;;;;;;27.22;28.90;100234.74;105453;1286;61138;-84
2023/07/19 13:31:17;;;;;;;;;;;;;;;27.21;28.99;100242.77;105481;1288;61138;-84
2023/07/19 13:34:03;;;;;;;;;;;;;;;27.20;28.89;100241.05;105515;1286;74985;-84
2023/07/19 13:36:50;;;;;;;;;;;;;;;27.21;28.96;100236.76;105372;1289;67397;-84
2023/07/19 13:39:36;;;;;;;;;;;;;;;27.23;29.00;100234.77;105471;1285;71515;-84
2023/07/19 13:42:24;;;;;;;;;;;;;;;27.25;28.97;100236.16;105520;1288;60811;-85
2023/07/19 13:45:10;;;;;;;;;;;;;;;27.26;29.05;100235.45;105346;1286;61186;-85
2023/07/19 13:47:56;;;;;;;;;;;;;;;27.24;29.04;100233.14;105380;1286;77361;-84
2023/07/19 13:50:42;;;;;;;;;;;;;;;27.16;29.00;100232.23;105351;1288;67401;-85
2023/07/19 13:53:29;;;;;;;;;;;;;;;27.10;29.01;100229.65;105444;1285;71359;-84
2023/07/19 13:56:15;;;;;;;;;;;;;;;27.08;29.18;100224.83;105454;1288;61734;-85
2023/07/19 13:59:01;;;;;;;;;;;;;;;27.12;29.33;100229.83;105437;1288;59285;-85
2023/07/19 14:01:47;;;;;;;;;;;;;;;27.12;29.34;100230.83;105248;1288;74056;-84
2023/07/19 14:04:34;;;;;;;;;;;;;;;27.07;29.41;100231.36;105453;1288;66771;-85
2023/07/19 14:07:20;;;;;;;;;;;;;;;26.96;29.51;100228.22;105406;1287;71209;-84
2023/07/19 14:10:07;;;;;;;;;;;;;;;26.85;29.51;100228.55;105488;1290;61086;-84
2023/07/19 14:12:53;;;;;;;;;;;;;;;26.75;29.54;100229.93;105396;1287;64502;-85
2023/07/19 14:15:39;;;;;;;;;;;;;;;26.66;29.54;100227.71;105473;1285;76011;-84
2023/07/19 14:18:26;;;;;;;;;;;;;;;26.59;29.61;100223.06;105517;1289;68467;-85
2023/07/19 14:21:12;;;;;;;;;;;;;;;26.51;29.61;100226.64;105505;1288;72505;-84
2023/07/19 14:23:58;;;;;;;;;;;;;;;26.42;29.70;100223.42;105390;1291;61237;-84
2023/07/19 14:26:44;;;;;;;;;;;;;;;26.33;29.74;100222.56;105510;1285;60181;-87
2023/07/19 14:29:30;;;;;;;;;;;;;;;26.26;29.81;100222.46;105387;1286;74630;-87
2023/07/19 14:32:16;;;;;;;;;;;;;;;26.23;29.75;100222.37;105436;1287;67306;-86
2023/07/19 14:35:02;;;;;;;;;;;;;;;26.20;29.91;100214.57;105471;1289;73149;-86
2023/07/19 14:37:48;;;;;;;;;;;;;;;26.21;30.07;100214.96;105376;1288;60492;-86